Latest Coastal Weather Observations for Bairnsdale

IDV60701

Issued at 2:05 pm EDT Saturday 22 November 2014 (issued every 10 minutes, with the page automatically refreshed every 10 minutes)

About coastal observations | Map of coastal stations | Coastal observations for VIC | Marine services | Other Formats
Station Details ID: 085279 Name: BAIRNSDALE AIRPORT Lat: -37.88 Lon: 147.57 Height: 49.4 m
Data from the previous 72 hours. | See also: Recent months at Bairnsdale
Date/Time
EDT
Temp

°C
Wind Pressure Rain
since 9am
mm
Weather Cloud Vis
km
Sea
Height
m
Swell
Dir
 
Speed
knots
Gust
knots
hPa Trend Height
m
Period
s
Dir
22/02:00pm 25.7 NE 5 8 1009.4 - 0.0 - - 10 - - - -
22/01:30pm 25.8 NNE 3 4 1010.1 - 0.0 - - 10 - - - -
22/01:00pm 25.7 S 4 7 1010.1 - 0.0 - - 10 - - - -
22/12:30pm 25.5 SSW 5 7 1010.2 - 0.0 - - 10 - - - -
22/12:00pm 25.2 WSW 6 8 1010.7 - 0.0 - - 10 - - - -
22/11:30am 25.0 WSW 5 11 1010.8 - 0.0 - - 10 - - - -
22/11:00am 25.0 WNW 6 8 1010.6 - 0.0 - - 10 - - - -
22/10:30am 22.9 S 3 5 1010.6 - 0.0 - - 10 - - - -
22/10:00am 21.5 SSE 4 6 1010.8 - 0.0 - - 10 - - - -
22/09:30am 20.0 NW 3 3 1011.4 - 0.0 - - 10 - - - -
22/09:00am 17.7 ENE 3 5 1011.2 - 0.0 - - 10 - - - -
22/08:30am 15.7 N 3 5 1011.5 - 0.0 - - 10 - - - -
22/08:00am 14.2 N 5 6 1011.5 - 0.0 - - 10 - - - -
22/07:30am 13.4 NNE 3 5 1011.5 - 0.0 - - 10 - - - -
22/07:00am 12.2 NE 4 6 1011.5 - 0.0 - - 10 - - - -
22/06:36am 11.2 NE 3 5 1011.3 - 0.0 - - 10 - - - -
22/06:30am 10.4 N 1 4 1011.3 - 0.0 - - 10 - - - -
22/06:18am 9.0 CALM 0 0 1011.2 - 0.0 - - 5 - - - -
22/06:15am 8.8 CALM 0 0 1011.2 - 0.0 - - 10 - - - -
22/06:00am 8.2 CALM 0 0 1011.1 - 0.0 - - 0.5 - - - -
22/05:31am 7.6 ESE 3 3 1011.1 - 0.0 - - 4 - - - -
22/05:30am 7.7 ESE 3 3 1011.1 - 0.0 - - 6 - - - -
22/05:00am 9.2 NE 3 4 1011.1 - 0.0 - - 10 - - - -
22/04:53am 8.8 NE 3 4 1011.2 - 0.0 - - 10 - - - -
22/04:30am 9.1 CALM 0 0 1011.2 - 0.0 - - 4 - - - -
22/04:26am 9.2 NE 1 3 1011.1 - 0.0 - - 5 - - - -
22/04:00am 10.0 NE 5 6 1011.1 - 0.0 - - 10 - - - -
22/03:30am 10.4 NNE 6 7 1011.3 - 0.0 - - 10 - - - -
22/03:00am 10.1 NNE 4 5 1011.8 - 0.0 - - 10 - - - -
22/02:30am 10.5 NE 5 6 1012.4 - 0.0 - - 10 - - - -
22/02:00am 10.7 NE 5 6 1012.8 - 0.0 - - 10 - - - -
22/01:30am 11.5 ENE 6 8 1013.2 - 0.0 - - 10 - - - -
22/01:00am 11.9 ENE 5 7 1013.7 - 0.0 - - 10 - - - -
22/12:30am 12.1 ENE 6 7 1013.9 - 0.0 - - 10 - - - -
22/12:00am 10.6 ESE 4 5 1014.1 - 0.0 - - 10 - - - -
 
Date/Time
EDT
Temp

°C
Wind Pressure Rain
since 9am
mm
Weather Cloud Vis
km
Sea
Height
m
Swell
Dir
 
Speed
knots
Gust
knots
hPa Trend Height
m
Period
s
Dir
21/11:30pm 12.2 E 4 5 1014.3 - 0.0 - - 10 - - - -
21/11:00pm 12.2 ENE 4 5 1014.4 - 0.0 - - 10 - - - -
21/10:30pm 12.3 ENE 5 6 1014.2 - 0.0 - - 10 - - - -
21/10:00pm 12.8 ENE 5 6 1014.2 - 0.0 - - 10 - - - -
21/09:30pm 12.8 NE 5 6 1014.0 - 0.0 - - 10 - - - -
21/09:00pm 14.0 E 5 5 1013.8 - 0.0 - - 10 - - - -
21/08:30pm 14.5 E 5 6 1013.6 - 0.0 - - 10 - - - -
21/08:00pm 15.3 ESE 5 7 1013.3 - 0.0 - - 10 - - - -
21/07:30pm 16.4 ESE 7 9 1012.8 - 0.0 - - 10 - - - -
21/07:00pm 17.2 SE 8 11 1012.3 - 0.0 - - 10 - - - -
21/06:30pm 17.7 SE 10 13 1011.6 - 0.0 - - 10 - - - -
21/06:00pm 18.2 SE 9 13 1011.4 - 0.0 - - 10 - - - -
21/05:30pm 18.6 SSE 11 15 1011.0 - 0.0 - - 10 - - - -
21/05:00pm 18.8 SE 11 15 1010.7 - 0.0 - - 10 - - - -
21/04:30pm 20.2 SE 13 16 1010.2 - 0.0 - - 10 - - - -
21/04:00pm 21.1 S 12 16 1009.9 - 0.0 - Partly cloudy 10 - - - -
21/03:30pm 21.0 SE 14 19 1009.6 - 0.0 - Partly cloudy 10 - - - -
21/03:00pm 23.8 WSW 11 17 1009.4 - 0.0 - Mostly clear 10 - - - -
21/02:30pm 23.3 WSW 11 15 1009.3 - 0.0 - Partly cloudy 10 - - - -
21/02:00pm 21.7 WSW 11 16 1009.4 - 0.0 - Cloudy 10 - - - -
21/01:30pm 22.6 SW 16 23 1009.4 - 0.0 - Partly cloudy 10 - - - -
21/01:00pm 22.1 SW 16 21 1009.5 - 0.0 - - 10 - - - -
21/12:30pm 21.7 WSW 17 24 1009.2 - 0.0 - Partly cloudy 10 - - - -
21/12:00pm 21.0 WSW 17 24 1008.9 - 0.0 - Cloudy 10 - - - -
21/11:30am 20.0 WSW 19 26 1009.1 - 0.0 - Partly cloudy 10 - - - -
21/11:00am 20.2 SW 17 23 1008.8 - 0.0 - Partly cloudy 10 - - - -
21/10:30am 19.1 WSW 16 24 1008.7 - 0.0 - Partly cloudy 10 - - - -
21/10:13am 19.0 WSW 16 26 1008.8 - 0.0 - Partly cloudy 10 - - - -
21/10:00am 18.6 WSW 15 21 1008.6 - 0.0 - Cloudy 10 - - - -
21/09:30am 18.6 WSW 14 20 1008.2 - 0.0 - Cloudy 10 - - - -
21/09:00am 18.3 WSW 13 18 1007.9 - 0.0 - Mostly cloudy 10 - - - -
21/08:30am 18.0 WSW 15 22 1007.6 - 0.0 - Partly cloudy 10 - - - -
21/08:00am 17.7 SW 17 24 1007.4 - 0.0 - Partly cloudy 10 - - - -
21/07:30am 18.3 WSW 13 18 1006.8 - 0.0 - Partly cloudy 10 - - - -
21/07:00am 18.1 SW 8 10 1006.2 - 0.0 - Partly cloudy 10 - - - -
21/06:30am 16.2 NNW 5 7 1005.6 - 0.0 - Partly cloudy 10 - - - -
21/06:00am 15.1 WNW 4 5 1005.2 - 0.0 - Partly cloudy 10 - - - -
21/05:30am 14.2 WNW 4 5 1004.8 - 0.0 - - 10 - - - -
21/05:00am 14.0 NW 7 9 1004.3 - 0.0 - - 10 - - - -
21/04:30am 13.2 WNW 4 6 1004.0 - 0.0 - - 10 - - - -
21/04:00am 13.0 SW 5 7 1003.6 - 0.0 - - 10 - - - -
21/03:30am 14.0 WSW 4 5 1003.4 - 0.0 - - 10 - - - -
21/03:00am 13.3 SSW 4 7 1003.6 - 0.0 - - 10 - - - -
21/02:30am 15.8 ENE 3 5 1003.4 - 0.0 - - 10 - - - -
21/02:00am 16.4 ENE 5 6 1003.9 - 0.0 - - 10 - - - -
21/01:30am 17.1 ENE 7 10 1004.4 - 0.0 - - 10 - - - -
21/01:00am 17.3 ENE 8 9 1005.1 - 0.0 - Partly cloudy 10 - - - -
21/12:30am 17.8 NE 8 11 1006.2 - 0.0 - Partly cloudy 10 - - - -
21/12:00am 17.6 NE 7 9 1007.1 - 0.0 - Cloudy 10 - - - -
 
Date/Time
EDT
Temp

°C
Wind Pressure Rain
since 9am
mm
Weather Cloud Vis
km
Sea
Height
m
Swell
Dir
 
Speed
knots
Gust
knots
hPa Trend Height
m
Period
s
Dir
20/11:30pm 17.9 E 6 7 1007.8 - 0.0 - Partly cloudy 10 - - - -
20/11:00pm 18.4 SE 7 8 1007.9 - 0.0 - Cloudy 10 - - - -
20/10:30pm 18.2 NE 5 6 1008.4 - 0.0 - Cloudy 10 - - - -
20/10:00pm 18.3 NE 4 6 1008.3 - 0.0 - Partly cloudy 10 - - - -
20/09:30pm 18.2 CALM 0 0 1008.2 - 0.0 - - 10 - - - -
20/09:00pm 19.3 SE 3 4 1008.1 - 0.0 - Cloudy 10 - - - -
20/08:30pm 19.6 ESE 4 5 1007.9 - 0.0 - Cloudy 10 - - - -
20/08:00pm 20.3 S 6 8 1007.7 - 0.0 - Partly cloudy 10 - - - -
20/07:30pm 20.6 SSW 10 14 1007.5 - 0.0 - Cloudy 10 - - - -
20/07:00pm 21.1 SSW 14 18 1006.8 - 0.0 - Partly cloudy 10 - - - -
20/06:30pm 21.4 S 17 22 1006.2 - 0.0 - Cloudy 10 - - - -
20/06:08pm 24.8 S 15 28 1005.7 - 0.0 - Cloudy 10 - - - -
20/06:00pm 25.9 WNW 4 5 1004.6 - 0.0 - Cloudy 10 - - - -
20/05:30pm 26.7 NNE 6 8 1004.9 - 0.0 - Partly cloudy 10 - - - -
20/05:00pm 27.7 NNW 6 9 1005.0 - 0.0 - Partly cloudy 10 - - - -
20/04:30pm 27.8 N 2 4 1004.8 - 0.0 - Partly cloudy 10 - - - -
20/04:00pm 28.0 NNW 4 5 1004.6 - 0.0 - Partly cloudy 10 - - - -
20/03:30pm 28.2 NW 5 7 1004.4 - 0.0 - Partly cloudy 10 - - - -
20/03:00pm 28.8 NNW 12 18 1004.6 - 0.0 - Cloudy 10 - - - -
20/02:30pm 29.7 NNW 12 18 1004.7 - 0.0 - - 10 - - - -
20/02:00pm 30.5 NNW 15 21 1005.0 - 0.0 - - 10 - - - -
20/01:30pm 29.9 NNW 16 23 1005.3 - 0.0 - - 10 - - - -
20/01:00pm 30.6 NNW 18 25 1005.8 - 0.0 - - 10 - - - -
20/12:30pm 29.6 NNW 15 23 1005.8 - 0.0 - - 10 - - - -
20/12:00pm 28.3 NNW 15 19 1006.4 - 0.0 - Mostly clear 10 - - - -
20/11:30am 28.2 NNW 13 20 1006.5 - 0.0 - - 10 - - - -
20/11:00am 29.4 NNW 14 21 1006.8 - 0.0 - - 10 - - - -
20/10:30am 28.7 NNW 11 16 1007.2 - 0.0 - - 10 - - - -
20/10:00am 27.4 N 7 10 1007.4 - 0.0 - - 10 - - - -
20/09:30am 25.2 NNE 5 7 1007.8 - 0.0 - - 10 - - - -
20/09:00am 23.1 N 5 6 1008.3 - 0.0 - - 10 - - - -
20/08:30am 20.3 NNE 5 7 1008.7 - 0.0 - - 10 - - - -
20/08:00am 17.5 N 5 7 1008.9 - 0.0 - - 10 - - - -
20/07:30am 16.5 N 5 7 1008.9 - 0.0 - - 10 - - - -
20/07:00am 15.7 N 6 7 1008.9 - 0.0 - - 10 - - - -
20/06:30am 14.2 NNE 5 6 1009.0 - 0.0 - - 10 - - - -
20/06:00am 14.1 NNE 5 7 1009.1 - 0.0 - Cloudy 10 - - - -
20/05:30am 12.6 N 5 7 1009.0 - 0.0 - - 10 - - - -
20/05:00am 12.6 N 6 8 1009.0 - 0.0 - - 10 - - - -
20/04:30am 11.1 N 5 7 1009.3 - 0.0 - - 10 - - - -
20/04:00am 11.2 NNE 3 4 1009.3 - 0.0 - - 10 - - - -
20/03:30am 11.4 NNE 3 5 1009.3 - 0.0 - - 10 - - - -
20/03:00am 11.3 NE 5 6 1009.7 - 0.0 - - 10 - - - -
20/02:30am 11.8 NNE 5 6 1010.4 - 0.0 - - 10 - - - -
20/02:00am 12.0 N 4 5 1011.3 - 0.0 - - 10 - - - -
20/01:30am 13.0 N 5 6 1011.4 - 0.0 - - 10 - - - -
20/01:00am 13.5 N 4 6 1011.9 - 0.0 - - 10 - - - -
20/12:30am 13.9 N 6 7 1012.4 - 0.0 - - 10 - - - -
20/12:00am 14.5 NNE 5 6 1012.8 - 0.0 - - 10 - - - -
 
Date/Time
EDT
Temp

°C
Wind Pressure Rain
since 9am
mm
Weather Cloud Vis
km
Sea
Height
m
Swell
Dir
 
Speed
knots
Gust
knots
hPa Trend Height
m
Period
s
Dir
19/11:30pm 14.1 NE 5 6 1012.9 - 0.0 - - 10 - - - -
19/11:00pm 12.8 E 1 3 1013.4 - 0.0 - - 10 - - - -
19/10:30pm 14.4 E 4 5 1013.3 - 0.0 - - 10 - - - -
19/10:00pm 15.0 NE 4 5 1013.7 - 0.0 - - 10 - - - -
19/09:30pm 14.8 NE 5 7 1013.6 - 0.0 - - 10 - - - -
19/09:00pm 15.1 E 5 5 1013.7 - 0.0 - - 10 - - - -
19/08:30pm 15.5 E 6 6 1013.9 - 0.0 - - 10 - - - -
19/08:00pm 16.3 E 5 7 1014.1 - 0.0 - - 10 - - - -
19/07:30pm 17.5 ESE 5 7 1013.9 - 0.0 - - 10 - - - -
19/07:00pm 18.5 ESE 7 10 1013.7 - 0.0 - - 10 - - - -
19/06:30pm 18.4 ESE 10 14 1013.7 - 0.0 - - 10 - - - -
19/06:00pm 18.7 E 11 13 1013.8 - 0.0 - - 10 - - - -
19/05:30pm 19.1 E 12 16 1013.8 - 0.0 - - 10 - - - -
19/05:00pm 19.8 E 11 14 1014.1 - 0.0 - - 10 - - - -
19/04:30pm 20.5 ESE 9 13 1014.2 - 0.0 - - 10 - - - -
19/04:00pm 21.0 E 10 15 1014.2 - 0.0 - - 10 - - - -
19/03:30pm 21.1 ESE 8 11 1014.6 - 0.0 - - 10 - - - -
19/03:00pm 20.4 ESE 10 14 1015.3 - 0.0 - - 10 - - - -
19/02:30pm 20.5 ESE 11 14 1015.7 - 0.0 - - 10 - - - -

Other Formats:

Comma delimited format used in spreadsheet applications
http://www.bom.gov.au/fwo/IDV60701/IDV60701.94912.axf

JavaScript Object Notation format (JSON) in row-major order
http://www.bom.gov.au/fwo/IDV60701/IDV60701.94912.json